createdAt,value
2018-07-17T00:00:12.244Z,6.22
2018-07-17T00:02:40.518Z,7.03
2018-07-17T00:05:09.325Z,6.95
2018-07-17T00:07:37.711Z,7.70
2018-07-17T00:10:06.190Z,7.95
2018-07-17T00:12:34.272Z,6.28
2018-07-17T00:15:02.626Z,6.90
2018-07-17T00:17:30.712Z,6.58
2018-07-17T00:19:58.782Z,6.20
2018-07-17T00:22:26.866Z,6.90
2018-07-17T00:24:54.930Z,7.10
2018-07-17T00:27:23.015Z,7.37
2018-07-17T00:29:51.090Z,6.90
2018-07-17T00:32:19.150Z,7.78
2018-07-17T00:34:47.226Z,7.12
2018-07-17T00:37:15.313Z,6.83
2018-07-17T00:39:43.492Z,7.72
2018-07-17T00:42:11.734Z,7.10
2018-07-17T00:44:39.860Z,7.85
2018-07-17T00:47:07.947Z,8.05
2018-07-17T00:49:36.012Z,8.88
2018-07-17T00:52:04.083Z,8.13
2018-07-17T00:54:32.198Z,7.75
2018-07-17T00:57:00.278Z,8.93
2018-07-17T00:59:28.350Z,7.83
2018-07-17T01:02:01.910Z,8.13
2018-07-17T01:04:35.830Z,7.65
2018-07-17T01:07:09.353Z,8.10
2018-07-17T01:09:42.845Z,8.40
2018-07-17T01:12:13.205Z,8.60
2018-07-17T01:14:46.646Z,8.28
2018-07-17T01:17:15.355Z,8.83
2018-07-17T01:19:43.428Z,9.35
2018-07-17T01:22:11.522Z,9.25
2018-07-17T01:24:39.632Z,8.08
2018-07-17T01:27:07.699Z,8.28
2018-07-17T01:29:35.803Z,8.98
2018-07-17T01:32:04.102Z,9.65
2018-07-17T01:34:32.366Z,9.05
2018-07-17T01:37:00.473Z,9.83
2018-07-17T01:39:28.550Z,9.40
2018-07-17T01:41:56.634Z,9.83
2018-07-17T01:44:25.148Z,9.50
2018-07-17T01:46:53.218Z,9.45
2018-07-17T01:49:21.326Z,9.70
2018-07-17T01:51:49.417Z,9.48
2018-07-17T01:54:17.490Z,9.83
2018-07-17T01:56:45.577Z,9.75
2018-07-17T01:59:13.648Z,8.93
2018-07-17T02:01:41.575Z,9.30
2018-07-17T02:04:09.647Z,8.88
2018-07-17T02:06:38.011Z,7.65
2018-07-17T02:09:06.118Z,7.75
2018-07-17T02:11:34.191Z,8.18
2018-07-17T02:14:02.272Z,7.72
2018-07-17T02:16:30.375Z,7.80
2018-07-17T02:18:58.430Z,7.78
2018-07-17T02:21:26.848Z,7.72
2018-07-17T02:23:54.981Z,7.78
2018-07-17T02:26:23.088Z,7.70
2018-07-17T02:28:51.471Z,7.60
2018-07-17T02:31:19.558Z,8.00
2018-07-17T02:33:47.626Z,7.85
2018-07-17T02:36:15.708Z,7.45
2018-07-17T02:38:43.781Z,7.97
2018-07-17T02:41:11.859Z,8.30
2018-07-17T02:43:40.245Z,7.22
2018-07-17T02:46:08.342Z,7.33
2018-07-17T02:48:36.473Z,7.97
2018-07-17T02:51:04.558Z,7.47
2018-07-17T02:53:32.629Z,7.80
2018-07-17T02:56:00.728Z,6.65
2018-07-17T02:58:29.045Z,7.12
2018-07-17T03:00:57.136Z,7.22
2018-07-17T03:03:25.230Z,6.87
2018-07-17T03:05:53.557Z,6.20
2018-07-17T03:08:21.626Z,6.03
2018-07-17T03:10:49.699Z,6.03
2018-07-17T03:13:18.098Z,5.65
2018-07-17T03:15:46.168Z,5.67
2018-07-17T03:18:14.253Z,5.78
2018-07-17T03:20:42.335Z,5.20
2018-07-17T03:23:10.414Z,5.85
2018-07-17T03:25:38.531Z,5.67
2018-07-17T03:28:07.243Z,5.95
2018-07-17T03:30:35.322Z,5.72
2018-07-17T03:33:03.386Z,5.75
2018-07-17T03:35:31.498Z,6.00
2018-07-17T03:37:59.572Z,6.15
2018-07-17T03:40:27.654Z,6.40
2018-07-17T03:42:55.792Z,6.12
2018-07-17T03:45:23.878Z,6.22
2018-07-17T03:47:51.960Z,6.62
2018-07-17T03:50:20.398Z,6.50
2018-07-17T03:52:48.493Z,7.05
2018-07-17T03:55:16.560Z,6.58
2018-07-17T03:57:44.938Z,6.90
2018-07-17T04:00:13.027Z,6.67
2018-07-17T04:02:41.152Z,6.28
2018-07-17T04:05:09.242Z,6.83
2018-07-17T04:07:37.357Z,6.97
2018-07-17T04:10:05.450Z,6.65
2018-07-17T04:12:33.814Z,6.87
2018-07-17T04:15:01.940Z,6.37
2018-07-17T04:17:30.023Z,6.90
2018-07-17T04:19:58.355Z,6.20
2018-07-17T04:22:26.477Z,6.33
2018-07-17T04:24:54.562Z,6.33
2018-07-17T04:27:22.678Z,6.62
2018-07-17T04:29:50.916Z,6.20
2018-07-17T04:32:19.025Z,6.55
2018-07-17T04:34:47.202Z,7.80
2018-07-17T04:37:15.288Z,7.58
2018-07-17T04:39:43.365Z,7.40
2018-07-17T04:42:12.462Z,6.97
2018-07-17T04:44:40.542Z,7.00
2018-07-17T04:47:08.633Z,6.78
2018-07-17T04:49:36.697Z,7.03
2018-07-17T04:52:04.758Z,7.28
2018-07-17T04:54:32.838Z,9.28
2018-07-17T04:57:01.196Z,7.58
2018-07-17T04:59:29.273Z,7.37
2018-07-17T05:01:57.415Z,7.58
2018-07-17T05:04:25.746Z,7.60
2018-07-17T05:06:53.831Z,7.20
2018-07-17T05:09:21.904Z,8.40
2018-07-17T05:11:50.294Z,8.20
2018-07-17T05:14:18.386Z,7.80
2018-07-17T05:16:46.464Z,7.50
2018-07-17T05:19:14.593Z,7.53
2018-07-17T05:21:42.770Z,6.72
2018-07-17T05:24:10.850Z,6.75
2018-07-17T05:26:38.944Z,7.33
2018-07-17T05:29:07.193Z,7.25
2018-07-17T05:31:35.264Z,7.62
2018-07-17T05:34:03.353Z,8.15
2018-07-17T05:36:31.461Z,8.13
2018-07-17T05:38:59.555Z,8.10
2018-07-17T05:41:27.626Z,8.28
2018-07-17T05:43:55.745Z,8.40
2018-07-17T05:46:23.956Z,8.68
2018-07-17T05:48:51.994Z,8.53
2018-07-17T05:51:20.055Z,8.23
2018-07-17T05:53:48.151Z,9.70
2018-07-17T05:56:16.602Z,9.40
2018-07-17T05:58:44.687Z,9.48
2018-07-17T06:01:12.758Z,9.68
2018-07-17T06:03:40.875Z,8.93
2018-07-17T06:06:08.963Z,9.40
2018-07-17T06:08:37.090Z,9.63
2018-07-17T06:11:05.639Z,9.48
2018-07-17T06:13:33.715Z,9.58
2018-07-17T06:16:01.807Z,8.63
2018-07-17T06:18:29.915Z,10.18
2018-07-17T06:20:58.086Z,11.45
2018-07-17T06:23:26.151Z,11.55
2018-07-17T06:25:54.246Z,11.03
2018-07-17T06:28:22.344Z,10.70
2018-07-17T06:30:50.907Z,9.55
2018-07-17T06:33:19.509Z,10.48
2018-07-17T06:35:47.648Z,10.53
2018-07-17T06:38:15.732Z,10.63
2018-07-17T06:40:43.856Z,11.10
2018-07-17T06:43:11.969Z,10.60
2018-07-17T06:45:40.121Z,10.85
2018-07-17T06:48:08.607Z,10.35
2018-07-17T06:50:36.768Z,10.70
2018-07-17T06:53:04.731Z,11.83
2018-07-17T06:55:32.830Z,11.00
2018-07-17T06:58:00.728Z,10.72
2018-07-17T07:00:28.903Z,11.43
2018-07-17T07:02:57.300Z,10.30
2018-07-17T07:05:25.366Z,9.80
2018-07-17T07:07:53.498Z,8.23
2018-07-17T07:10:21.925Z,9.05
2018-07-17T07:12:50.037Z,8.70
2018-07-17T07:15:18.110Z,7.72
2018-07-17T07:17:46.178Z,8.65
2018-07-17T07:20:14.250Z,7.35
2018-07-17T07:22:42.508Z,8.60
2018-07-17T07:25:10.863Z,8.45
2018-07-17T07:27:39.002Z,7.90
2018-07-17T07:30:07.111Z,7.62
2018-07-17T07:32:35.476Z,6.78
2018-07-17T07:35:03.578Z,6.83
2018-07-17T07:37:31.627Z,7.45
2018-07-17T07:39:59.723Z,5.95
2018-07-17T07:42:27.802Z,6.60
2018-07-17T07:44:55.937Z,6.28
2018-07-17T07:47:24.322Z,6.00
2018-07-17T07:49:52.394Z,5.10
2018-07-17T07:52:20.461Z,5.72
2018-07-17T07:54:48.816Z,6.60
2018-07-17T07:57:16.890Z,5.90
2018-07-17T07:59:44.973Z,6.28
2018-07-17T08:02:13.042Z,5.67
2018-07-17T08:04:41.149Z,5.70
2018-07-17T08:07:09.251Z,6.00
2018-07-17T08:09:37.272Z,6.83
2018-07-17T08:12:05.365Z,6.65
2018-07-17T08:14:33.383Z,6.37
2018-07-17T08:17:01.472Z,6.30
2018-07-17T08:19:29.662Z,5.78
2018-07-17T08:21:57.726Z,5.90
2018-07-17T08:24:25.911Z,6.10
2018-07-17T08:26:53.883Z,7.60
2018-07-17T08:29:21.961Z,6.50
2018-07-17T08:31:50.051Z,7.08
2018-07-17T08:34:18.187Z,7.90
2018-07-17T08:36:46.375Z,6.90
2018-07-17T08:39:14.459Z,6.50
2018-07-17T08:41:42.547Z,6.03
2018-07-17T08:44:10.652Z,7.37
2018-07-17T08:46:39.088Z,6.60
2018-07-17T08:49:07.222Z,6.75
2018-07-17T08:51:35.459Z,7.03
2018-07-17T08:54:03.867Z,7.72
2018-07-17T08:56:32.048Z,8.23
2018-07-17T08:59:00.179Z,10.13
2018-07-17T09:01:28.650Z,8.58
2018-07-17T09:03:56.772Z,10.05
2018-07-17T09:06:24.875Z,9.48
2018-07-17T09:08:53.239Z,9.38
2018-07-17T09:11:21.347Z,9.75
2018-07-17T09:13:49.448Z,10.60
2018-07-17T09:16:17.539Z,10.25
2018-07-17T09:18:45.643Z,10.28
2018-07-17T09:21:13.767Z,10.88
2018-07-17T09:23:41.713Z,10.88
2018-07-17T09:26:09.785Z,10.05
2018-07-17T09:28:37.924Z,10.03
2018-07-17T09:31:06.491Z,10.98
2018-07-17T09:33:34.765Z,11.30
2018-07-17T09:36:03.911Z,11.38
2018-07-17T09:38:31.998Z,11.75
2018-07-17T09:41:00.091Z,13.03
2018-07-17T09:43:28.195Z,12.55
2018-07-17T09:45:56.590Z,13.20
2018-07-17T09:48:24.714Z,13.05
2018-07-17T09:50:52.850Z,11.40
2018-07-17T09:53:20.942Z,14.07
2018-07-17T09:55:49.015Z,12.55
2018-07-17T09:58:17.109Z,11.73
2018-07-17T10:01:51.590Z,12.13
2018-07-17T10:04:19.700Z,11.88
2018-07-17T10:06:48.154Z,13.85
2018-07-17T10:09:16.238Z,11.97
2018-07-17T10:11:44.388Z,12.30
2018-07-17T10:14:12.552Z,11.50
2018-07-17T10:16:41.084Z,11.12
2018-07-17T10:19:09.186Z,10.18
2018-07-17T10:21:37.384Z,9.73
2018-07-17T10:24:05.862Z,9.80
2018-07-17T10:26:33.956Z,9.25
2018-07-17T10:29:02.032Z,7.33
2018-07-17T10:31:30.354Z,8.70
2018-07-17T10:33:58.462Z,8.30
2018-07-17T10:36:26.598Z,8.80
2018-07-17T10:38:54.809Z,7.90
2018-07-17T10:41:22.878Z,8.13
2018-07-17T10:43:50.963Z,7.75
2018-07-17T10:46:19.439Z,8.20
2018-07-17T10:48:47.534Z,6.67
2018-07-17T10:51:15.609Z,7.30
2018-07-17T10:53:43.973Z,6.75
2018-07-17T10:56:12.051Z,6.05
2018-07-17T10:58:40.180Z,7.00
2018-07-17T11:01:08.613Z,8.50
2018-07-17T11:03:36.694Z,7.60
2018-07-17T11:06:04.951Z,6.75
2018-07-17T11:08:33.449Z,7.62
2018-07-17T11:11:01.817Z,7.10
2018-07-17T11:13:29.927Z,7.75
2018-07-17T11:15:58.351Z,6.72
2018-07-17T11:18:26.423Z,6.75
2018-07-17T11:20:54.532Z,6.70
2018-07-17T11:23:22.682Z,6.08
2018-07-17T11:25:50.771Z,6.22
2018-07-17T11:28:18.842Z,6.80
2018-07-17T11:30:47.199Z,6.62
2018-07-17T11:33:15.278Z,6.37
2018-07-17T11:35:43.420Z,5.53
2018-07-17T11:38:11.819Z,6.22
2018-07-17T11:40:39.972Z,5.35
2018-07-17T11:43:08.073Z,6.08
2018-07-17T11:45:36.552Z,5.25
2018-07-17T11:48:04.833Z,4.50
2018-07-17T11:50:33.005Z,4.78
2018-07-17T11:53:01.464Z,4.60
2018-07-17T11:55:29.578Z,4.70
2018-07-17T11:57:57.466Z,4.78
2018-07-17T12:00:25.538Z,4.95
2018-07-17T12:02:53.603Z,4.03
2018-07-17T12:05:21.492Z,4.22
2018-07-17T12:07:49.830Z,3.42
2018-07-17T12:10:17.910Z,3.60
2018-07-17T12:12:45.885Z,3.70
2018-07-17T12:15:13.831Z,3.83
2018-07-17T12:17:41.907Z,3.60
2018-07-17T12:20:10.102Z,4.17
2018-07-17T12:22:38.175Z,2.95
2018-07-17T12:25:06.263Z,3.45
2018-07-17T12:27:35.153Z,3.10
2018-07-17T12:30:03.443Z,2.70
2018-07-17T12:32:31.536Z,2.87
2018-07-17T12:34:59.738Z,3.60
2018-07-17T12:37:27.982Z,4.03
2018-07-17T12:39:56.109Z,3.98
2018-07-17T12:42:23.991Z,3.80
2018-07-17T12:44:52.549Z,2.77
2018-07-17T12:47:20.738Z,4.03
2018-07-17T12:49:48.886Z,4.33
2018-07-17T12:52:17.006Z,4.10
2018-07-17T12:54:45.083Z,4.03
2018-07-17T12:57:13.151Z,4.12
2018-07-17T12:59:41.554Z,4.20
2018-07-17T13:02:09.657Z,3.20
2018-07-17T13:04:37.730Z,3.62
2018-07-17T13:07:06.104Z,3.20
2018-07-17T13:09:34.182Z,4.17
2018-07-17T13:12:02.284Z,3.25
2018-07-17T13:14:30.726Z,3.20
2018-07-17T13:16:58.806Z,2.37
2018-07-17T13:19:26.887Z,2.15
2018-07-17T13:21:54.968Z,1.98
2018-07-17T13:24:23.052Z,1.70
2018-07-17T13:26:51.136Z,1.40
2018-07-17T13:29:19.643Z,1.87
2018-07-17T13:31:47.995Z,1.25
2018-07-17T13:34:16.084Z,1.50
2018-07-17T13:36:44.206Z,1.65
2018-07-17T13:39:12.987Z,1.45
2018-07-17T13:41:41.360Z,2.12
2018-07-17T13:44:09.776Z,1.90
2018-07-17T13:46:37.964Z,2.35
2018-07-17T13:49:06.072Z,2.57
2018-07-17T13:51:34.457Z,3.50
2018-07-17T13:54:02.812Z,2.67
2018-07-17T13:56:30.882Z,2.92
2018-07-17T13:58:59.278Z,2.42
2018-07-17T14:01:27.383Z,2.77
2018-07-17T14:03:55.594Z,3.02
2018-07-17T14:06:23.742Z,2.72
2018-07-17T14:08:51.838Z,3.08
2018-07-17T14:11:19.954Z,2.90
2018-07-17T14:13:48.306Z,4.87
2018-07-17T14:16:16.754Z,4.28
2018-07-17T14:18:44.842Z,4.60
2018-07-17T14:21:12.898Z,3.65
2018-07-17T14:23:41.029Z,3.87
2018-07-17T14:26:09.175Z,4.60
2018-07-17T14:28:37.374Z,4.42
2018-07-17T14:31:05.676Z,4.22
2018-07-17T14:33:34.149Z,4.45
2018-07-17T14:36:02.247Z,4.05
2018-07-17T14:38:30.172Z,4.53
2018-07-17T14:40:58.242Z,4.25
2018-07-17T14:43:26.907Z,3.65
2018-07-17T14:45:54.982Z,3.52
2018-07-17T14:48:23.092Z,4.47
2018-07-17T14:50:51.535Z,4.47
2018-07-17T14:53:19.607Z,3.52
2018-07-17T14:55:47.697Z,4.30
2018-07-17T14:58:16.363Z,4.28
2018-07-17T15:00:44.415Z,3.67
2018-07-17T15:03:12.503Z,4.35
2018-07-17T15:05:41.527Z,4.05
2018-07-17T15:08:09.599Z,3.27
2018-07-17T15:10:37.720Z,3.60
2018-07-17T15:13:06.332Z,2.92
2018-07-17T15:15:34.626Z,2.80
2018-07-17T15:18:02.679Z,2.90
2018-07-17T15:20:31.060Z,3.33
2018-07-17T15:22:59.417Z,3.10
2018-07-17T15:25:28.439Z,2.45
2018-07-17T15:27:56.927Z,2.60
2018-07-17T15:30:24.906Z,3.20
2018-07-17T15:32:52.998Z,3.10
2018-07-17T15:35:20.874Z,3.45
2018-07-17T15:37:48.954Z,2.77
2018-07-17T15:40:17.510Z,3.10
2018-07-17T15:42:45.827Z,2.50
2018-07-17T15:45:13.921Z,2.60
2018-07-17T15:47:42.375Z,2.90
2018-07-17T15:50:10.607Z,2.52
2018-07-17T15:52:38.727Z,2.60
2018-07-17T15:55:06.790Z,2.42
2018-07-17T15:57:35.218Z,2.62
2018-07-17T16:00:03.278Z,2.90
2018-07-17T16:02:31.356Z,2.42
2018-07-17T16:04:59.856Z,2.45
2018-07-17T16:07:28.212Z,2.98
2018-07-17T16:09:56.345Z,1.90
2018-07-17T16:12:24.673Z,2.37
2018-07-17T16:14:52.787Z,2.20
2018-07-17T16:17:20.866Z,1.90
2018-07-17T16:19:48.942Z,1.70
2018-07-17T16:22:17.048Z,2.08
2018-07-17T16:24:45.099Z,1.87
2018-07-17T16:27:13.158Z,2.00
2018-07-17T16:29:41.084Z,2.47
2018-07-17T16:32:09.142Z,2.00
2018-07-17T16:34:37.616Z,2.00
2018-07-17T16:37:05.704Z,1.42
2018-07-17T16:39:34.386Z,2.30
2018-07-17T16:42:02.760Z,1.82
2018-07-17T16:44:30.823Z,1.70
2018-07-17T16:46:58.880Z,2.40
2018-07-17T16:49:27.658Z,1.57
2018-07-17T16:51:55.739Z,1.87
2018-07-17T16:54:23.827Z,1.80
2018-07-17T16:56:52.210Z,1.60
2018-07-17T16:59:20.494Z,2.02
2018-07-17T17:01:48.658Z,1.47
2018-07-17T17:04:17.219Z,1.72
2018-07-17T17:06:45.329Z,1.92
2018-07-17T17:09:13.416Z,1.60
2018-07-17T17:11:41.978Z,1.50
2018-07-17T17:14:10.319Z,2.17
2018-07-17T17:16:38.456Z,1.57
2018-07-17T17:19:07.006Z,2.12
2018-07-17T17:21:35.077Z,2.02
2018-07-17T17:24:03.278Z,2.22
2018-07-17T17:26:31.534Z,2.20
2018-07-17T17:28:59.602Z,1.62
2018-07-17T17:31:27.674Z,1.42
2018-07-17T17:33:56.145Z,1.47
2018-07-17T17:36:24.210Z,1.37
2018-07-17T17:38:52.303Z,1.50
2018-07-17T17:41:20.782Z,1.98
2018-07-17T17:43:48.974Z,1.57
2018-07-17T17:46:17.093Z,1.80
2018-07-17T17:48:45.258Z,1.90
2018-07-17T17:51:13.350Z,2.10
2018-07-17T17:53:42.028Z,2.10
2018-07-17T17:56:16.784Z,2.52
2018-07-17T17:58:45.214Z,2.25
2018-07-17T18:01:13.400Z,2.15
2018-07-17T18:03:42.135Z,2.35
2018-07-17T18:06:10.228Z,2.20
2018-07-17T18:08:38.450Z,2.65
2018-07-17T18:11:06.570Z,2.20
2018-07-17T18:13:34.760Z,2.50
2018-07-17T18:16:02.831Z,3.17
2018-07-17T18:18:31.001Z,3.10
2018-07-17T18:20:59.035Z,3.30
2018-07-17T18:23:27.108Z,3.10
2018-07-17T18:25:55.507Z,3.20
2018-07-17T18:28:23.574Z,3.30
2018-07-17T18:30:51.714Z,3.40
2018-07-17T18:33:19.815Z,3.52
2018-07-17T18:35:47.898Z,3.25
2018-07-17T18:38:15.948Z,3.58
2018-07-17T18:40:44.083Z,3.52
2018-07-17T18:43:12.232Z,3.50
2018-07-17T18:45:40.439Z,3.08
2018-07-17T18:48:08.907Z,3.40
2018-07-17T18:50:37.042Z,3.02
2018-07-17T18:53:05.136Z,2.98
2018-07-17T18:55:33.594Z,3.33
2018-07-17T18:58:01.691Z,3.60
2018-07-17T19:00:29.790Z,3.40
2018-07-17T19:02:58.066Z,3.30
2018-07-17T19:05:26.261Z,3.25
2018-07-17T19:07:54.362Z,3.05
2018-07-17T19:10:22.746Z,3.65
2018-07-17T19:12:50.986Z,3.20
2018-07-17T19:15:19.110Z,2.77
2018-07-17T19:17:47.570Z,3.17
2018-07-17T19:20:15.646Z,3.00
2018-07-17T19:22:45.386Z,3.95
2018-07-17T19:25:13.914Z,3.00
2018-07-17T19:27:42.100Z,2.98
2018-07-17T19:30:10.266Z,3.72
2018-07-17T19:32:38.270Z,3.05
2018-07-17T19:35:06.436Z,3.30
2018-07-17T19:37:34.528Z,3.40
2018-07-17T19:40:02.990Z,3.42
2018-07-17T19:42:31.115Z,3.20
2018-07-17T19:44:58.949Z,3.10
2018-07-17T19:47:27.394Z,3.27
2018-07-17T19:49:55.444Z,3.10
2018-07-17T19:52:23.546Z,3.30
2018-07-17T19:54:52.083Z,3.55
2018-07-17T19:57:20.135Z,3.83
2018-07-17T19:59:48.197Z,4.40
2018-07-17T20:02:16.270Z,3.00
2018-07-17T20:04:44.387Z,3.30
2018-07-17T20:07:12.473Z,3.37
2018-07-17T20:09:40.838Z,3.52
2018-07-17T20:12:08.829Z,3.77
2018-07-17T20:14:37.026Z,3.35
2018-07-17T20:17:05.267Z,3.42
2018-07-17T20:19:33.582Z,3.12
2018-07-17T20:22:01.986Z,3.33
2018-07-17T20:24:30.335Z,3.22
2018-07-17T20:26:58.672Z,3.25
2018-07-17T20:29:26.772Z,3.60
2018-07-17T20:31:55.178Z,3.62
2018-07-17T20:34:23.238Z,3.33
2018-07-17T20:36:51.331Z,3.55
2018-07-17T20:39:19.723Z,3.95
2018-07-17T20:41:47.785Z,3.87
2018-07-17T20:44:15.863Z,3.80
2018-07-17T20:46:44.132Z,4.05
2018-07-17T20:49:12.214Z,4.40
2018-07-17T20:51:40.319Z,3.95
2018-07-17T20:54:08.837Z,4.05
2018-07-17T20:56:36.926Z,4.20
2018-07-17T20:59:05.259Z,4.17
2018-07-17T21:01:33.336Z,3.90
2018-07-17T21:04:01.853Z,3.80
2018-07-17T21:06:30.258Z,3.95
2018-07-17T21:08:58.376Z,3.55
2018-07-17T21:11:26.451Z,4.05
2018-07-17T21:13:54.546Z,4.30
2018-07-17T21:16:22.615Z,4.15
2018-07-17T21:18:50.868Z,3.52
2018-07-17T21:21:18.947Z,3.98
2018-07-17T21:23:47.551Z,4.20
2018-07-17T21:26:16.954Z,4.12
2018-07-17T21:28:45.893Z,5.08
2018-07-17T21:31:15.003Z,4.53
2018-07-17T21:33:43.165Z,5.10
2018-07-17T21:36:11.403Z,4.55
2018-07-17T21:38:39.859Z,3.95
2018-07-17T21:41:07.968Z,3.95
2018-07-17T21:43:36.074Z,4.17
2018-07-17T21:46:04.439Z,4.28
2018-07-17T21:48:32.523Z,4.47
2018-07-17T21:51:00.608Z,4.33
2018-07-17T21:53:29.014Z,4.40
2018-07-17T21:55:57.160Z,3.95
2018-07-17T21:58:25.218Z,4.00
2018-07-17T22:00:53.955Z,3.57
2018-07-17T22:03:22.546Z,4.47
2018-07-17T22:05:50.755Z,5.12
2018-07-17T22:08:19.282Z,5.25
2018-07-17T22:10:47.373Z,5.60
2018-07-17T22:13:15.571Z,7.72
2018-07-17T22:15:43.842Z,4.20
2018-07-17T22:18:12.080Z,3.98
2018-07-17T22:20:40.146Z,4.53
2018-07-17T22:23:08.520Z,4.00
2018-07-17T22:25:36.683Z,4.23
2018-07-17T22:28:05.070Z,3.67
2018-07-17T22:30:33.467Z,3.67
2018-07-17T22:33:01.603Z,4.03
2018-07-17T22:35:30.004Z,4.60
2018-07-17T22:37:58.515Z,4.73
2018-07-17T22:40:26.683Z,4.67
2018-07-17T22:42:54.957Z,4.57
2018-07-17T22:45:23.335Z,4.50
2018-07-17T22:47:51.469Z,4.40
2018-07-17T22:50:19.757Z,4.87
2018-07-17T22:52:47.842Z,4.57
2018-07-17T22:55:16.166Z,5.07
2018-07-17T22:57:44.250Z,4.07
2018-07-17T23:00:12.699Z,4.92
2018-07-17T23:02:40.639Z,5.50
2018-07-17T23:05:08.694Z,6.00
2018-07-17T23:07:37.013Z,6.13
2018-07-17T23:10:05.127Z,5.83
2018-07-17T23:12:33.226Z,5.20
2018-07-17T23:15:01.606Z,5.37
2018-07-17T23:17:29.688Z,5.50
2018-07-17T23:19:57.750Z,5.43
2018-07-17T23:22:33.169Z,5.97
2018-07-17T23:25:01.227Z,6.27
2018-07-17T23:27:29.302Z,6.13
2018-07-17T23:29:57.618Z,5.77
2018-07-17T23:32:25.733Z,5.10
2018-07-17T23:34:53.821Z,5.80
2018-07-17T23:37:21.934Z,6.37
2018-07-17T23:39:50.007Z,5.80
2018-07-17T23:42:18.078Z,5.60
2018-07-17T23:44:46.454Z,5.50
2018-07-17T23:47:14.555Z,5.50
2018-07-17T23:49:43.534Z,4.77
2018-07-17T23:52:11.690Z,5.17
2018-07-17T23:54:39.782Z,5.37
2018-07-17T23:57:07.848Z,5.10
2018-07-17T23:59:36.223Z,5.00
